Time;durP1;ratioP1;P1;durP2;ratioP2;P2;SDS_P1;SDS_P2;PMS_P1;PMS_P2;Temp;Humidity;BMP_temperature;BMP_pressure;BME280_temperature;BME280_humidity;BME280_pressure;Samples;Min_cycle;Max_cycle;Signal;HPM_P1;HPM_P2
2022/10/11 00:02:01;;;;;;;20.75;2.97;;;;;;;;;;4955806;28;20033;-77
2022/10/11 00:04:56;;;;;;;;;;;;;;;;;;;;;
2022/10/11 00:07:48;;;;;;;19.15;2.97;;;;;;;;;;4909164;28;20129;-77
2022/10/11 00:10:14;;;;;;;17.35;2.92;;;;;;;;;;4885276;28;20037;-78
2022/10/11 00:12:40;;;;;;;21.25;2.58;;;;;;;;;;4954654;28;20315;-78
2022/10/11 00:15:06;;;;;;;18.55;2.80;;;;;;;;;;4977617;28;20426;-77
2022/10/11 00:17:32;;;;;;;15.07;2.13;;;;;;;;;;4979977;28;20022;-77
2022/10/11 00:19:58;;;;;;;17.65;2.92;;;;;;;;;;4969868;28;20140;-77
2022/10/11 00:22:23;;;;;;;17.63;2.78;;;;;;;;;;4972309;28;20156;-76
2022/10/11 00:24:54;;;;;;;20.92;2.45;;;;;;;;;;4976229;28;20269;-77
2022/10/11 00:27:20;;;;;;;16.75;2.63;;;;;;;;;;4954056;28;20033;-76
2022/10/11 00:29:45;;;;;;;16.27;2.63;;;;;;;;;;4979415;28;20068;-77
2022/10/11 00:32:11;;;;;;;19.92;2.35;;;;;;;;;;4972809;28;20037;-77
2022/10/11 00:34:36;;;;;;;17.13;2.70;;;;;;;;;;4971657;28;20756;-77
2022/10/11 00:37:02;;;;;;;15.50;3.25;;;;;;;;;;4959599;28;20612;-78
2022/10/11 00:39:28;;;;;;;17.13;2.72;;;;;;;;;;4981805;28;22341;-78
2022/10/11 00:41:58;;;;;;;17.23;2.70;;;;;;;;;;4959992;28;20043;-77
2022/10/11 00:44:27;;;;;;;14.27;1.90;;;;;;;;;;4972209;28;20144;-78
2022/10/11 00:47:00;;;;;;;17.75;2.10;;;;;;;;;;4971909;28;20054;-77
2022/10/11 00:49:26;;;;;;;17.35;2.65;;;;;;;;;;4928239;28;20069;-77
2022/10/11 00:52:00;;;;;;;14.93;2.58;;;;;;;;;;4956478;28;20030;-77
2022/10/11 00:54:29;;;;;;;21.83;2.35;;;;;;;;;;4968565;28;20071;-78
2022/10/11 00:57:00;;;;;;;11.90;2.20;;;;;;;;;;4968945;28;20042;-77
2022/10/11 00:59:28;;;;;;;15.40;2.35;;;;;;;;;;4970975;28;20041;-77
2022/10/11 01:01:53;;;;;;;18.13;2.90;;;;;;;;;;4972261;28;20048;-76
2022/10/11 01:04:19;;;;;;;14.38;2.30;;;;;;;;;;4962901;28;20049;-77
2022/10/11 01:06:46;;;;;;;19.50;2.95;;;;;;;;;;4980632;28;22328;-77
2022/10/11 01:09:14;;;;;;;23.42;2.83;;;;;;;;;;4972379;28;20046;-77
2022/10/11 01:11:40;;;;;;;19.83;2.60;;;;;;;;;;4967290;28;20033;-76
2022/10/11 01:14:05;;;;;;;17.02;2.45;;;;;;;;;;4970143;28;20052;-77
2022/10/11 01:16:34;;;;;;;20.00;2.92;;;;;;;;;;4969226;28;20038;-77
2022/10/11 01:19:02;;;;;;;19.27;3.03;;;;;;;;;;4968433;28;20084;-77
2022/10/11 01:21:39;;;;;;;29.55;3.72;;;;;;;;;;4974461;28;22699;-78
2022/10/11 01:24:12;;;;;;;19.65;2.75;;;;;;;;;;4970370;28;20130;-77
2022/10/11 01:26:37;;;;;;;13.93;2.88;;;;;;;;;;4970637;28;20116;-77
2022/10/11 01:29:08;;;;;;;19.20;2.88;;;;;;;;;;4967996;28;20069;-77
2022/10/11 01:31:36;;;;;;;16.92;3.00;;;;;;;;;;4969841;28;20034;-77
2022/10/11 01:34:06;;;;;;;18.38;2.70;;;;;;;;;;4969121;28;21107;-77
2022/10/11 01:36:36;;;;;;;17.23;2.50;;;;;;;;;;4966419;28;20132;-77
2022/10/11 01:39:05;;;;;;;23.27;3.33;;;;;;;;;;4965346;28;20037;-76
2022/10/11 01:41:42;;;;;;;20.25;2.88;;;;;;;;;;4981455;28;20848;-78
2022/10/11 01:44:12;;;;;;;17.55;2.42;;;;;;;;;;4967498;28;20048;-77
2022/10/11 01:46:37;;;;;;;20.38;3.40;;;;;;;;;;4965429;28;20046;-77
2022/10/11 01:49:03;;;;;;;18.85;2.42;;;;;;;;;;4976612;28;20067;-77
2022/10/11 01:51:30;;;;;;;14.68;2.60;;;;;;;;;;4965735;28;20636;-76
2022/10/11 01:54:02;;;;;;;17.55;2.30;;;;;;;;;;4959777;28;20038;-76
2022/10/11 01:56:49;;;;;;;15.98;2.50;;;;;;;;;;4975346;28;20048;-76
2022/10/11 01:59:34;;;;;;;26.20;2.97;;;;;;;;;;4971783;28;20029;-75
2022/10/11 02:02:02;;;;;;;18.75;2.38;;;;;;;;;;4968033;28;20038;-76
2022/10/11 02:04:43;;;;;;;19.35;3.05;;;;;;;;;;4959809;28;20164;-76
2022/10/11 02:07:34;;;;;;;25.13;2.92;;;;;;;;;;4967717;28;20034;-77
2022/10/11 02:10:05;;;;;;;19.13;3.25;;;;;;;;;;4968045;28;20490;-77
2022/10/11 02:12:39;;;;;;;24.03;3.30;;;;;;;;;;4967977;28;20752;-77
2022/10/11 02:15:07;;;;;;;29.05;3.58;;;;;;;;;;4965453;28;20256;-76
2022/10/11 02:17:35;;;;;;;21.23;3.95;;;;;;;;;;4973080;28;20508;-76
2022/10/11 02:20:06;;;;;;;30.67;4.47;;;;;;;;;;4942918;28;20053;-77
2022/10/11 02:22:34;;;;;;;23.55;3.88;;;;;;;;;;4981894;28;20073;-75
2022/10/11 02:25:02;;;;;;;24.77;3.92;;;;;;;;;;4970829;28;20529;-76
2022/10/11 02:27:35;;;;;;;26.02;3.70;;;;;;;;;;4963554;28;20100;-77
2022/10/11 02:30:06;;;;;;;22.17;3.22;;;;;;;;;;4939006;28;20048;-77
2022/10/11 02:32:32;;;;;;;26.35;3.35;;;;;;;;;;4953437;28;20042;-76
2022/10/11 02:35:00;;;;;;;20.23;3.20;;;;;;;;;;4971242;28;20060;-76
2022/10/11 02:37:40;;;;;;;25.98;4.32;;;;;;;;;;4976364;28;20034;-76
2022/10/11 02:40:21;;;;;;;27.52;3.55;;;;;;;;;;4950352;28;20037;-76
2022/10/11 02:43:10;;;;;;;18.13;3.35;;;;;;;;;;4984770;28;20053;-75
2022/10/11 02:45:41;;;;;;;22.35;3.10;;;;;;;;;;4962756;28;20037;-76
2022/10/11 02:48:08;;;;;;;25.65;2.67;;;;;;;;;;4965374;28;20623;-76
2022/10/11 02:50:37;;;;;;;21.55;3.17;;;;;;;;;;4951942;28;20033;-76
2022/10/11 02:53:06;;;;;;;20.88;3.42;;;;;;;;;;4967457;28;20045;-76
2022/10/11 02:55:36;;;;;;;20.33;3.45;;;;;;;;;;4948636;28;20049;-76
2022/10/11 02:58:02;;;;;;;19.90;3.42;;;;;;;;;;4970652;28;20113;-76
2022/10/11 03:00:28;;;;;;;23.23;3.38;;;;;;;;;;4969647;28;20107;-76
2022/10/11 03:02:54;;;;;;;32.25;4.63;;;;;;;;;;4956062;28;20045;-76
2022/10/11 03:05:22;;;;;;;33.60;4.35;;;;;;;;;;4959134;28;20128;-76
2022/10/11 03:07:47;;;;;;;27.13;4.15;;;;;;;;;;4979799;28;20041;-76
2022/10/11 03:10:16;;;;;;;36.03;5.10;;;;;;;;;;4969763;28;20037;-76
2022/10/11 03:12:41;;;;;;;36.13;4.68;;;;;;;;;;4950485;28;21639;-76
2022/10/11 03:15:07;;;;;;;23.50;3.88;;;;;;;;;;4955241;28;20037;-76
2022/10/11 03:17:33;;;;;;;22.08;4.03;;;;;;;;;;4968030;28;20189;-76
2022/10/11 03:19:58;;;;;;;18.05;3.58;;;;;;;;;;4961773;28;20042;-77
2022/10/11 03:22:24;;;;;;;24.80;3.40;;;;;;;;;;4956159;28;20038;-76
2022/10/11 03:24:52;;;;;;;20.27;3.03;;;;;;;;;;4979528;28;21215;-77
2022/10/11 03:27:25;;;;;;;30.60;4.32;;;;;;;;;;4973376;28;20070;-77
2022/10/11 03:29:52;;;;;;;37.25;4.95;;;;;;;;;;4967777;28;20087;-77
2022/10/11 03:32:20;;;;;;;24.08;3.33;;;;;;;;;;4958073;28;20082;-76
2022/10/11 03:34:46;;;;;;;25.52;3.42;;;;;;;;;;4945217;28;20038;-76
2022/10/11 03:37:11;;;;;;;22.75;3.50;;;;;;;;;;4984778;28;20054;-77
2022/10/11 03:39:45;;;;;;;20.35;3.58;;;;;;;;;;4969470;28;20041;-77
2022/10/11 03:42:14;;;;;;;20.27;3.65;;;;;;;;;;4962937;28;20305;-77
2022/10/11 03:44:51;;;;;;;20.02;3.05;;;;;;;;;;4937645;28;20167;-76
2022/10/11 03:47:22;;;;;;;19.00;2.85;;;;;;;;;;4967487;28;20034;-76
2022/10/11 03:49:56;;;;;;;22.20;3.20;;;;;;;;;;4967290;28;21272;-76
2022/10/11 03:52:33;;;;;;;23.38;3.63;;;;;;;;;;4963728;28;20034;-75
2022/10/11 03:55:07;;;;;;;21.83;3.00;;;;;;;;;;4967669;28;20066;-76
2022/10/11 03:57:32;;;;;;;18.27;2.92;;;;;;;;;;4958872;28;20266;-76
2022/10/11 03:59:57;;;;;;;16.23;2.63;;;;;;;;;;4969511;28;20030;-76
2022/10/11 04:02:26;;;;;;;21.38;3.05;;;;;;;;;;4965181;28;20104;-76
2022/10/11 04:04:55;;;;;;;22.92;3.58;;;;;;;;;;4959779;28;20169;-76
2022/10/11 04:07:26;;;;;;;21.40;3.85;;;;;;;;;;4946447;28;20091;-76
2022/10/11 04:09:57;;;;;;;24.98;3.63;;;;;;;;;;4955863;28;20026;-76
2022/10/11 04:12:32;;;;;;;28.85;3.67;;;;;;;;;;4953054;28;20877;-76
2022/10/11 04:15:00;;;;;;;25.85;3.42;;;;;;;;;;4966929;28;20853;-76
2022/10/11 04:17:25;;;;;;;17.08;2.58;;;;;;;;;;4954415;28;20063;-76
2022/10/11 04:19:54;;;;;;;21.50;2.50;;;;;;;;;;4975698;28;20033;-77
2022/10/11 04:22:19;;;;;;;16.23;2.80;;;;;;;;;;4968386;28;20041;-75
2022/10/11 04:24:46;;;;;;;23.77;3.08;;;;;;;;;;4970610;28;20119;-75
2022/10/11 04:27:14;;;;;;;19.70;3.25;;;;;;;;;;4958467;28;20030;-76
2022/10/11 04:29:40;;;;;;;19.55;3.22;;;;;;;;;;4967245;28;20103;-76
2022/10/11 04:32:08;;;;;;;23.83;3.00;;;;;;;;;;4967754;28;20029;-77
2022/10/11 04:34:40;;;;;;;12.48;2.60;;;;;;;;;;4941208;28;20122;-76
2022/10/11 04:37:14;;;;;;;14.38;2.92;;;;;;;;;;4978945;28;20035;-77
2022/10/11 04:39:56;;;;;;;21.88;3.00;;;;;;;;;;4935899;28;20042;-77
2022/10/11 04:42:30;;;;;;;26.42;3.72;;;;;;;;;;4906464;28;20034;-76
2022/10/11 04:45:00;;;;;;;21.30;2.97;;;;;;;;;;4949829;28;20029;-77
2022/10/11 04:47:29;;;;;;;24.45;3.05;;;;;;;;;;4972225;28;20037;-76
2022/10/11 04:50:00;;;;;;;19.13;2.90;;;;;;;;;;4975120;28;20053;-76
2022/10/11 04:52:25;;;;;;;14.82;2.40;;;;;;;;;;4964024;28;20029;-76
2022/10/11 04:54:52;;;;;;;23.67;3.15;;;;;;;;;;4963848;28;21338;-76
2022/10/11 04:57:17;;;;;;;22.45;3.80;;;;;;;;;;4951844;28;20112;-76
2022/10/11 04:59:45;;;;;;;18.13;2.60;;;;;;;;;;4975176;28;20615;-76
2022/10/11 05:02:11;;;;;;;22.08;3.22;;;;;;;;;;4935277;28;20060;-76
2022/10/11 05:04:37;;;;;;;26.35;2.90;;;;;;;;;;4967551;28;20474;-75
2022/10/11 05:07:05;;;;;;;16.58;2.60;;;;;;;;;;4930846;28;20525;-76
2022/10/11 05:09:34;;;;;;;30.88;3.28;;;;;;;;;;4977319;28;20057;-78
2022/10/11 05:12:05;;;;;;;27.63;3.53;;;;;;;;;;4958986;28;20034;-75
2022/10/11 05:14:33;;;;;;;15.98;2.97;;;;;;;;;;4980158;28;20045;-76
2022/10/11 05:17:01;;;;;;;21.80;3.22;;;;;;;;;;4965169;28;20971;-77
2022/10/11 05:19:27;;;;;;;20.95;3.05;;;;;;;;;;4974288;28;20041;-76
2022/10/11 05:21:56;;;;;;;26.05;3.30;;;;;;;;;;4958228;28;20037;-77
2022/10/11 05:24:27;;;;;;;18.15;2.90;;;;;;;;;;4939468;28;20129;-75
2022/10/11 05:26:59;;;;;;;21.17;3.00;;;;;;;;;;4961736;28;20533;-74
2022/10/11 05:29:34;;;;;;;23.30;2.90;;;;;;;;;;4970368;28;20029;-73
2022/10/11 05:31:59;;;;;;;20.98;2.97;;;;;;;;;;4975291;28;21181;-75
2022/10/11 05:34:27;;;;;;;25.45;2.90;;;;;;;;;;4953287;28;21130;-75
2022/10/11 05:37:00;;;;;;;16.88;2.60;;;;;;;;;;4957418;28;20099;-75
2022/10/11 05:39:26;;;;;;;15.95;2.47;;;;;;;;;;4971713;28;20029;-75
2022/10/11 05:41:52;;;;;;;22.88;3.03;;;;;;;;;;4959696;28;20070;-75
2022/10/11 05:44:22;;;;;;;25.83;3.05;;;;;;;;;;4953070;28;20052;-75
2022/10/11 05:46:50;;;;;;;19.73;3.15;;;;;;;;;;4963905;28;20038;-75
2022/10/11 05:49:15;;;;;;;20.52;3.50;;;;;;;;;;4963944;28;21143;-75
2022/10/11 05:51:45;;;;;;;19.90;3.05;;;;;;;;;;4967272;28;20145;-75
2022/10/11 05:54:11;;;;;;;18.60;2.63;;;;;;;;;;4951425;28;20575;-74
2022/10/11 05:56:37;;;;;;;20.85;3.03;;;;;;;;;;4950350;28;20080;-74
2022/10/11 05:59:03;;;;;;;25.63;3.10;;;;;;;;;;4968380;28;20029;-75
2022/10/11 06:01:36;;;;;;;21.40;3.22;;;;;;;;;;4961023;28;20673;-74
2022/10/11 06:04:04;;;;;;;17.50;2.65;;;;;;;;;;4972735;28;20045;-74
2022/10/11 06:06:36;;;;;;;25.38;3.17;;;;;;;;;;4953197;28;20060;-74
2022/10/11 06:09:23;;;;;;;24.80;3.70;;;;;;;;;;4959438;28;20047;-74
2022/10/11 06:11:54;;;;;;;16.55;2.80;;;;;;;;;;4966187;28;20038;-74
2022/10/11 06:14:20;;;;;;;18.35;3.25;;;;;;;;;;4970887;28;20038;-75
2022/10/11 06:16:45;;;;;;;15.63;3.03;;;;;;;;;;4968880;28;20034;-75
2022/10/11 06:19:11;;;;;;;16.98;3.15;;;;;;;;;;4969826;28;20037;-75
2022/10/11 06:21:37;;;;;;;17.42;2.80;;;;;;;;;;4970028;28;20141;-74
2022/10/11 06:24:08;;;;;;;20.60;2.83;;;;;;;;;;4969505;28;20191;-75
2022/10/11 06:26:38;;;;;;;19.30;2.88;;;;;;;;;;4968442;28;20044;-74
2022/10/11 06:29:07;;;;;;;17.92;2.85;;;;;;;;;;4964058;28;20057;-76
2022/10/11 06:31:32;;;;;;;23.52;3.08;;;;;;;;;;4969608;28;20030;-75
2022/10/11 06:34:00;;;;;;;22.00;3.13;;;;;;;;;;4964183;28;20037;-74
2022/10/11 06:36:31;;;;;;;20.02;3.08;;;;;;;;;;4969089;28;20033;-74
2022/10/11 06:39:05;;;;;;;17.80;2.55;;;;;;;;;;4934082;28;20052;-73
2022/10/11 06:41:32;;;;;;;19.70;2.67;;;;;;;;;;4903782;28;20050;-73
2022/10/11 06:43:58;;;;;;;21.67;3.10;;;;;;;;;;4944570;28;20052;-75
2022/10/11 06:46:25;;;;;;;17.23;2.53;;;;;;;;;;4955548;28;20065;-76
2022/10/11 06:48:57;;;;;;;26.80;3.45;;;;;;;;;;4971965;28;21133;-74
2022/10/11 06:51:24;;;;;;;20.02;2.60;;;;;;;;;;4963282;28;20034;-74
2022/10/11 06:54:00;;;;;;;17.40;2.85;;;;;;;;;;4951519;28;20076;-75
2022/10/11 06:56:29;;;;;;;20.40;2.55;;;;;;;;;;4948154;28;20037;-76
2022/10/11 06:58:55;;;;;;;17.30;2.63;;;;;;;;;;4963569;28;20779;-75
2022/10/11 07:01:24;;;;;;;18.95;2.55;;;;;;;;;;4960686;28;20038;-75
2022/10/11 07:03:51;;;;;;;18.10;2.45;;;;;;;;;;4961130;28;20077;-74
2022/10/11 07:06:22;;;;;;;14.80;2.40;;;;;;;;;;4971753;28;20538;-74
2022/10/11 07:08:54;;;;;;;14.10;2.50;;;;;;;;;;4936479;28;20225;-74
2022/10/11 07:11:23;;;;;;;16.65;2.70;;;;;;;;;;4973583;28;20568;-75
2022/10/11 07:13:50;;;;;;;15.38;2.75;;;;;;;;;;4949628;28;20033;-74
2022/10/11 07:16:19;;;;;;;20.25;3.00;;;;;;;;;;4972446;28;20149;-74
2022/10/11 07:18:45;;;;;;;19.02;3.35;;;;;;;;;;4957614;28;20032;-74
2022/10/11 07:21:17;;;;;;;23.40;4.00;;;;;;;;;;4940550;28;20067;-75
2022/10/11 07:23:42;;;;;;;18.27;2.97;;;;;;;;;;4973241;28;20172;-74
2022/10/11 07:26:09;;;;;;;16.50;3.33;;;;;;;;;;4962210;28;20439;-74
2022/10/11 07:28:37;;;;;;;21.75;4.05;;;;;;;;;;4972959;28;20050;-75
2022/10/11 07:31:05;;;;;;;17.65;4.07;;;;;;;;;;4973515;28;20365;-74
2022/10/11 07:33:35;;;;;;;19.60;3.28;;;;;;;;;;4962234;28;20156;-74
2022/10/11 07:36:00;;;;;;;14.45;2.70;;;;;;;;;;4963077;28;20434;-74
2022/10/11 07:38:26;;;;;;;17.55;3.38;;;;;;;;;;4967452;28;20038;-74
2022/10/11 07:40:52;;;;;;;14.25;2.80;;;;;;;;;;4969049;28;20042;-73
2022/10/11 07:43:17;;;;;;;23.10;3.13;;;;;;;;;;4968391;28;20549;-74
2022/10/11 07:45:51;;;;;;;19.98;2.80;;;;;;;;;;4959850;28;20616;-74
2022/10/11 07:48:17;;;;;;;20.75;3.17;;;;;;;;;;4963236;28;20094;-74
2022/10/11 07:50:42;;;;;;;17.83;2.90;;;;;;;;;;4980696;28;20041;-73
2022/10/11 07:53:08;;;;;;;17.10;2.75;;;;;;;;;;4976353;28;20096;-74
2022/10/11 07:55:39;;;;;;;16.15;3.33;;;;;;;;;;4974763;28;20107;-74
2022/10/11 07:58:07;;;;;;;16.60;2.90;;;;;;;;;;4969787;28;20144;-75
2022/10/11 08:00:33;;;;;;;20.27;2.67;;;;;;;;;;4977331;28;20084;-74
2022/10/11 08:03:00;;;;;;;20.60;2.75;;;;;;;;;;4985918;28;20486;-76
2022/10/11 08:05:25;;;;;;;17.10;2.63;;;;;;;;;;4971948;28;20034;-74
2022/10/11 08:07:53;;;;;;;15.45;2.58;;;;;;;;;;4972421;28;20053;-74
2022/10/11 08:10:19;;;;;;;16.15;2.72;;;;;;;;;;4971281;28;20127;-74
2022/10/11 08:12:47;;;;;;;15.90;2.63;;;;;;;;;;4971808;28;20133;-74
2022/10/11 08:15:12;;;;;;;12.35;2.30;;;;;;;;;;4973579;28;20040;-75
2022/10/11 08:17:41;;;;;;;15.73;2.58;;;;;;;;;;4986246;28;20128;-73
2022/10/11 08:20:08;;;;;;;15.80;2.80;;;;;;;;;;4970611;28;22003;-75
2022/10/11 08:22:34;;;;;;;18.48;2.75;;;;;;;;;;4971911;28;20473;-74
2022/10/11 08:24:59;;;;;;;19.33;2.70;;;;;;;;;;4969282;28;20285;-74
2022/10/11 08:27:24;;;;;;;14.32;2.67;;;;;;;;;;4966748;28;20511;-75
2022/10/11 08:29:50;;;;;;;12.25;2.38;;;;;;;;;;4970132;28;20029;-74
2022/10/11 08:32:15;;;;;;;17.13;2.83;;;;;;;;;;4982495;28;20030;-74
2022/10/11 08:34:41;;;;;;;14.15;2.78;;;;;;;;;;4970263;28;20033;-75
2022/10/11 08:37:07;;;;;;;19.55;3.35;;;;;;;;;;4970513;28;20034;-75
2022/10/11 08:39:32;;;;;;;15.57;3.15;;;;;;;;;;4972335;28;20026;-78
2022/10/11 08:42:03;;;;;;;19.42;2.83;;;;;;;;;;4972713;28;20037;-75
2022/10/11 08:44:44;;;;;;;19.45;3.45;;;;;;;;;;4975716;28;20077;-74
2022/10/11 08:47:19;;;;;;;18.73;3.20;;;;;;;;;;4980482;28;20148;-75
2022/10/11 08:49:44;;;;;;;21.65;3.13;;;;;;;;;;4978240;28;20057;-74
2022/10/11 08:52:21;;;;;;;18.73;2.70;;;;;;;;;;4980538;28;20059;-74
2022/10/11 08:54:48;;;;;;;18.20;2.97;;;;;;;;;;4983232;28;20060;-76
2022/10/11 08:57:16;;;;;;;14.98;2.55;;;;;;;;;;4987384;28;20034;-73
2022/10/11 08:59:58;;;;;;;12.55;3.08;;;;;;;;;;4979277;28;20148;-76
2022/10/11 09:02:27;;;;;;;15.60;2.95;;;;;;;;;;4976553;28;20064;-73
2022/10/11 09:04:53;;;;;;;16.38;2.55;;;;;;;;;;5001318;28;20036;-73
2022/10/11 09:07:28;;;;;;;16.55;2.58;;;;;;;;;;4973809;28;20042;-74
2022/10/11 09:10:22;;;;;;;15.40;2.72;;;;;;;;;;4973789;28;20033;-74
2022/10/11 09:13:01;;;;;;;14.32;3.00;;;;;;;;;;4984393;28;20033;-74
2022/10/11 09:15:26;;;;;;;11.45;2.47;;;;;;;;;;4979163;28;20041;-74
2022/10/11 09:18:11;;;;;;;11.25;2.40;;;;;;;;;;4969278;28;20038;-75
2022/10/11 09:20:50;;;;;;;15.90;2.63;;;;;;;;;;4971830;28;20037;-75
2022/10/11 09:23:25;;;;;;;13.50;2.10;;;;;;;;;;4971495;28;20046;-76
2022/10/11 09:25:56;;;;;;;17.48;2.50;;;;;;;;;;4972802;28;20092;-76
2022/10/11 09:28:34;;;;;;;16.95;3.05;;;;;;;;;;4973960;28;20033;-75
2022/10/11 09:30:59;;;;;;;17.42;2.50;;;;;;;;;;4971135;28;20132;-75
2022/10/11 09:33:24;;;;;;;14.30;2.08;;;;;;;;;;4972470;28;20029;-75
2022/10/11 09:35:50;;;;;;;15.80;2.22;;;;;;;;;;4978538;28;20429;-75
2022/10/11 09:38:29;;;;;;;14.57;2.22;;;;;;;;;;4976488;28;20129;-76
2022/10/11 09:41:01;;;;;;;8.88;1.73;;;;;;;;;;4975946;28;20040;-74
2022/10/11 09:43:27;;;;;;;12.38;2.15;;;;;;;;;;4968252;28;20053;-74
2022/10/11 09:45:52;;;;;;;17.58;3.30;;;;;;;;;;4976732;28;20061;-75
2022/10/11 09:48:22;;;;;;;17.05;2.75;;;;;;;;;;4969238;28;20034;-75
2022/10/11 09:50:49;;;;;;;13.00;2.13;;;;;;;;;;4965984;28;20033;-75
2022/10/11 09:53:15;;;;;;;12.32;2.30;;;;;;;;;;4968825;28;20038;-75
2022/10/11 09:55:45;;;;;;;16.83;2.35;;;;;;;;;;4968440;28;20810;-74
2022/10/11 09:58:30;;;;;;;12.95;1.95;;;;;;;;;;4968367;28;20204;-75
2022/10/11 10:01:00;;;;;;;11.20;1.70;;;;;;;;;;4966475;28;20748;-74
2022/10/11 10:03:27;;;;;;;11.32;2.33;;;;;;;;;;4970042;28;20628;-73
2022/10/11 10:06:14;;;;;;;10.95;1.98;;;;;;;;;;4965030;28;20038;-73
2022/10/11 10:08:45;;;;;;;13.85;2.42;;;;;;;;;;4965889;28;20670;-74
2022/10/11 10:11:11;;;;;;;10.23;1.95;;;;;;;;;;4964578;28;20668;-75
2022/10/11 10:13:37;;;;;;;10.00;2.00;;;;;;;;;;4970973;28;22423;-75
2022/10/11 10:16:04;;;;;;;15.18;2.08;;;;;;;;;;4970919;28;20046;-75
2022/10/11 10:18:34;;;;;;;9.93;2.08;;;;;;;;;;4965209;28;20061;-75
2022/10/11 10:21:00;;;;;;;10.75;2.60;;;;;;;;;;4965402;28;20095;-74
2022/10/11 10:23:27;;;;;;;11.88;2.05;;;;;;;;;;4979795;28;20286;-74
2022/10/11 10:26:14;;;;;;;8.50;1.80;;;;;;;;;;4965108;28;20038;-78
2022/10/11 10:28:53;;;;;;;13.40;1.63;;;;;;;;;;4965001;28;20705;-78
2022/10/11 10:31:23;;;;;;;12.48;2.28;;;;;;;;;;4964188;28;20577;-78
2022/10/11 10:33:50;;;;;;;10.38;1.80;;;;;;;;;;4965430;28;20127;-77
2022/10/11 10:36:20;;;;;;;13.35;2.15;;;;;;;;;;4962659;28;20123;-75
2022/10/11 10:38:49;;;;;;;12.65;2.72;;;;;;;;;;4957639;28;20041;-75
2022/10/11 10:41:19;;;;;;;10.75;2.42;;;;;;;;;;4969068;28;20365;-74
2022/10/11 10:43:50;;;;;;;8.55;2.40;;;;;;;;;;4965179;28;20049;-73
2022/10/11 10:46:22;;;;;;;13.63;2.05;;;;;;;;;;4968947;28;20037;-74
2022/10/11 10:48:59;;;;;;;13.40;2.65;;;;;;;;;;4974232;28;20050;-74
2022/10/11 10:51:32;;;;;;;12.18;3.00;;;;;;;;;;4971383;28;20106;-71
2022/10/11 10:53:57;;;;;;;13.73;1.80;;;;;;;;;;4982710;28;20233;-75
2022/10/11 10:56:26;;;;;;;10.05;1.92;;;;;;;;;;4968778;28;20483;-75
2022/10/11 10:59:07;;;;;;;8.82;2.05;;;;;;;;;;4968400;28;20062;-74
2022/10/11 11:01:35;;;;;;;13.02;2.38;;;;;;;;;;4968783;28;20275;-74
2022/10/11 11:04:17;;;;;;;13.45;1.90;;;;;;;;;;4968702;28;20792;-75
2022/10/11 11:06:43;;;;;;;9.82;1.67;;;;;;;;;;4966687;28;20454;-75
2022/10/11 11:09:17;;;;;;;10.70;2.10;;;;;;;;;;4969471;28;20037;-75
2022/10/11 11:11:45;;;;;;;7.95;1.70;;;;;;;;;;4968045;28;20357;-75
2022/10/11 11:14:17;;;;;;;7.07;1.67;;;;;;;;;;4968953;28;20448;-75
2022/10/11 11:16:54;;;;;;;10.73;2.30;;;;;;;;;;4967019;28;20041;-74
2022/10/11 11:19:25;;;;;;;10.15;1.88;;;;;;;;;;4971319;28;20768;-74
2022/10/11 11:21:55;;;;;;;9.68;1.63;;;;;;;;;;4968060;28;20037;-74
2022/10/11 11:24:43;;;;;;;9.00;1.70;;;;;;;;;;4958321;28;20129;-75
2022/10/11 11:27:17;;;;;;;8.43;2.10;;;;;;;;;;5001268;28;20045;-74
2022/10/11 11:29:46;;;;;;;13.27;2.35;;;;;;;;;;4981545;28;20835;-74
2022/10/11 11:32:24;;;;;;;15.60;1.95;;;;;;;;;;5001272;28;20034;-74
2022/10/11 11:35:09;;;;;;;15.63;1.80;;;;;;;;;;4980237;28;20241;-73
2022/10/11 11:37:37;;;;;;;11.00;2.00;;;;;;;;;;5008507;28;20081;-73
2022/10/11 11:40:20;;;;;;;10.07;1.85;;;;;;;;;;4984316;28;20045;-74
2022/10/11 11:42:49;;;;;;;8.77;1.83;;;;;;;;;;4999596;28;20041;-73
2022/10/11 11:45:26;;;;;;;11.38;1.80;;;;;;;;;;4988554;28;20415;-73
2022/10/11 11:48:02;;;;;;;11.88;2.00;;;;;;;;;;4989157;28;20245;-73
2022/10/11 11:50:32;;;;;;;12.52;2.17;;;;;;;;;;4998879;28;20278;-73
2022/10/11 11:53:03;;;;;;;12.25;1.88;;;;;;;;;;4996865;28;20033;-73
2022/10/11 11:55:37;;;;;;;10.85;1.60;;;;;;;;;;5005513;28;20778;-73
2022/10/11 11:58:08;;;;;;;10.75;2.20;;;;;;;;;;4970207;28;21890;-74
2022/10/11 12:00:44;;;;;;;8.10;1.70;;;;;;;;;;4972551;28;20049;-74
2022/10/11 12:03:15;;;;;;;9.48;1.85;;;;;;;;;;4963378;28;20358;-72
2022/10/11 12:06:00;;;;;;;9.15;1.73;;;;;;;;;;4967758;28;20049;-76
2022/10/11 12:08:31;;;;;;;10.30;2.28;;;;;;;;;;4975249;28;20515;-72
2022/10/11 12:10:59;;;;;;;9.07;1.70;;;;;;;;;;4972441;28;20303;-73
2022/10/11 12:13:26;;;;;;;13.32;2.00;;;;;;;;;;4969408;28;20352;-72
2022/10/11 12:15:55;;;;;;;9.60;1.85;;;;;;;;;;4966172;28;20757;-72
2022/10/11 12:18:20;;;;;;;11.85;2.20;;;;;;;;;;4959484;28;20149;-72
2022/10/11 12:20:59;;;;;;;13.75;2.20;;;;;;;;;;4957236;28;20037;-70
2022/10/11 12:23:27;;;;;;;10.65;2.00;;;;;;;;;;4978132;28;20050;-72
2022/10/11 12:26:12;;;;;;;9.27;1.75;;;;;;;;;;4970218;28;20030;-72
2022/10/11 12:28:40;;;;;;;10.65;1.95;;;;;;;;;;4968820;28;20156;-73
2022/10/11 12:31:35;;;;;;;10.02;1.70;;;;;;;;;;4965626;28;20200;-73
2022/10/11 12:34:01;;;;;;;11.52;1.73;;;;;;;;;;4954748;28;20117;-72
2022/10/11 12:36:27;;;;;;;12.00;1.90;;;;;;;;;;4969681;28;20037;-75
2022/10/11 12:39:11;;;;;;;11.45;2.08;;;;;;;;;;4962135;28;20956;-74
2022/10/11 12:41:56;;;;;;;12.05;2.40;;;;;;;;;;4971457;28;20737;-73
2022/10/11 12:44:26;;;;;;;11.80;1.73;;;;;;;;;;4958402;28;20072;-73
2022/10/11 12:46:52;;;;;;;11.43;2.10;;;;;;;;;;4972325;28;20133;-74
2022/10/11 12:49:45;;;;;;;12.00;2.20;;;;;;;;;;4969640;28;20057;-73
2022/10/11 12:52:16;;;;;;;8.43;1.77;;;;;;;;;;4969680;28;20030;-74
2022/10/11 12:55:00;;;;;;;12.93;2.10;;;;;;;;;;4970320;28;20042;-73
2022/10/11 12:57:26;;;;;;;14.05;2.05;;;;;;;;;;4969858;28;20042;-73
2022/10/11 13:00:05;;;;;;;9.25;2.05;;;;;;;;;;4969583;28;20084;-73
2022/10/11 13:02:41;;;;;;;10.50;1.70;;;;;;;;;;4950445;28;20038;-72
2022/10/11 13:05:27;;;;;;;15.20;2.20;;;;;;;;;;4973124;28;20143;-73
2022/10/11 13:07:59;;;;;;;9.50;1.60;;;;;;;;;;4964767;28;20149;-73
2022/10/11 13:10:29;;;;;;;20.23;2.38;;;;;;;;;;4964940;28;20041;-72
2022/10/11 13:12:58;;;;;;;15.23;2.03;;;;;;;;;;4969145;28;20092;-73
2022/10/11 13:15:26;;;;;;;12.43;1.80;;;;;;;;;;4975200;28;20038;-73
2022/10/11 13:17:57;;;;;;;8.95;1.92;;;;;;;;;;4942741;28;21169;-73
2022/10/11 13:20:24;;;;;;;10.50;1.80;;;;;;;;;;4958227;28;20801;-73
2022/10/11 13:22:53;;;;;;;11.13;1.63;;;;;;;;;;4979679;28;20070;-72
2022/10/11 13:25:21;;;;;;;8.40;1.73;;;;;;;;;;4967162;28;20038;-72
2022/10/11 13:27:50;;;;;;;8.32;1.70;;;;;;;;;;4969435;28;20147;-72
2022/10/11 13:30:18;;;;;;;11.55;1.90;;;;;;;;;;4959137;28;20037;-72
2022/10/11 13:32:47;;;;;;;13.10;2.58;;;;;;;;;;4960685;28;20047;-72
2022/10/11 13:35:26;;;;;;;8.45;2.17;;;;;;;;;;4972018;28;20149;-72
2022/10/11 13:37:57;;;;;;;11.27;1.83;;;;;;;;;;4952915;28;20033;-72
2022/10/11 13:40:23;;;;;;;10.90;2.13;;;;;;;;;;4965566;28;20041;-72
2022/10/11 13:42:52;;;;;;;10.10;2.20;;;;;;;;;;4973130;28;20025;-72
2022/10/11 13:45:23;;;;;;;10.75;1.98;;;;;;;;;;4964382;28;20060;-73
2022/10/11 13:47:52;;;;;;;9.93;1.80;;;;;;;;;;4970926;28;20778;-72
2022/10/11 13:50:33;;;;;;;10.68;2.20;;;;;;;;;;4963172;28;20951;-72
2022/10/11 13:53:08;;;;;;;17.80;2.42;;;;;;;;;;4970036;28;20048;-73
2022/10/11 13:55:53;;;;;;;12.45;2.25;;;;;;;;;;4970191;28;20176;-72
2022/10/11 13:58:22;;;;;;;14.27;2.15;;;;;;;;;;4967495;28;20034;-74
2022/10/11 14:01:10;;;;;;;15.25;2.03;;;;;;;;;;4936868;28;20152;-73
2022/10/11 14:03:35;;;;;;;13.43;2.55;;;;;;;;;;4965091;28;20116;-72
2022/10/11 14:06:02;;;;;;;10.57;2.20;;;;;;;;;;4967391;28;20036;-72
2022/10/11 14:08:45;;;;;;;13.95;2.55;;;;;;;;;;4967750;28;20037;-72
2022/10/11 14:11:12;;;;;;;11.70;2.40;;;;;;;;;;4975731;28;20153;-72
2022/10/11 14:13:41;;;;;;;13.48;1.98;;;;;;;;;;4955682;28;20863;-72
2022/10/11 14:16:15;;;;;;;15.55;2.17;;;;;;;;;;4969148;28;20034;-72
2022/10/11 14:18:45;;;;;;;14.35;2.90;;;;;;;;;;4957232;28;20116;-73
2022/10/11 14:21:23;;;;;;;10.40;2.20;;;;;;;;;;4958126;28;20037;-72
2022/10/11 14:24:04;;;;;;;11.02;2.33;;;;;;;;;;4963392;28;20049;-71
2022/10/11 14:26:51;;;;;;;12.02;2.10;;;;;;;;;;4917342;28;20035;-72
2022/10/11 14:29:27;;;;;;;10.90;2.40;;;;;;;;;;4889029;28;20047;-72
2022/10/11 14:32:07;;;;;;;11.23;1.90;;;;;;;;;;4915124;28;21193;-72
2022/10/11 14:34:38;;;;;;;13.00;2.00;;;;;;;;;;4905182;28;20411;-72
2022/10/11 14:37:06;;;;;;;8.18;1.90;;;;;;;;;;4890165;28;20039;-72
2022/10/11 14:39:37;;;;;;;16.98;2.15;;;;;;;;;;4902279;28;20079;-72
2022/10/11 14:42:06;;;;;;;12.20;2.58;;;;;;;;;;4881517;28;20043;-72
2022/10/11 14:44:45;;;;;;;18.83;2.30;;;;;;;;;;4902047;28;25758;-72
2022/10/11 14:47:34;;;;;;;16.38;2.53;;;;;;;;;;4917900;28;20035;-73
2022/10/11 14:50:00;;;;;;;13.50;2.00;;;;;;;;;;4869680;28;20593;-73
2022/10/11 14:52:26;;;;;;;16.10;2.25;;;;;;;;;;4922369;28;20116;-72